Time;durP1;ratioP1;P1;durP2;ratioP2;P2;SDS_P1;SDS_P2;PMS_P1;PMS_P2;Temp;Humidity;BMP_temperature;BMP_pressure;BME280_temperature;BME280_humidity;BME280_pressure;Samples;Min_cycle;Max_cycle;Signal;HPM_P1;HPM_P2
2022/12/13 00:01:23;;;;;;;;;31.75;28.00;;;;;3.38;58.98;17173.81;4995276;28;45442;-83
2022/12/13 00:03:52;;;;;;;;;25.75;24.25;;;;;3.36;59.21;17833.53;4999512;28;45572;-82
2022/12/13 00:06:18;;;;;;;;;23.25;21.50;;;;;2.77;59.20;17483.81;5001944;28;47261;-83
2022/12/13 00:08:43;;;;;;;;;32.50;28.50;;;;;3.34;58.90;17832.84;4979787;28;45565;-82
2022/12/13 00:11:13;;;;;;;;;31.00;28.00;;;;;2.64;58.60;17809.41;4987260;28;45962;-83
2022/12/13 00:13:40;;;;;;;;;24.00;22.25;;;;;3.31;58.78;18492.25;4995002;27;45745;-83
2022/12/13 00:16:09;;;;;;;;;28.50;23.25;;;;;2.24;58.74;17796.00;4993958;28;46428;-84
2022/12/13 00:18:34;;;;;;;;;30.50;26.00;;;;;2.84;58.68;18476.06;4993151;28;45508;-84
2022/12/13 00:21:07;;;;;;;;;34.50;23.00;;;;;2.71;58.56;18801.38;4994842;28;45469;-84
2022/12/13 00:23:32;;;;;;;;;26.00;22.50;;;;;3.28;58.66;18491.16;4984546;28;45569;-83
2022/12/13 00:26:19;;;;;;;;;27.50;26.25;;;;;2.04;58.71;19107.38;5009012;28;48267;-83
2022/12/13 00:28:48;;;;;;;;;28.25;26.25;;;;;2.82;58.60;18805.34;4994425;28;45520;-83
2022/12/13 00:31:14;;;;;;;;;28.25;25.75;;;;;2.59;58.41;18797.06;4994443;28;45496;-85
2022/12/13 00:33:39;;;;;;;;;27.25;23.25;;;;;2.04;57.98;19107.38;4992843;28;45697;-83
2022/12/13 00:36:06;;;;;;;;;28.75;20.00;;;;;3.10;58.16;19145.28;4992513;28;48499;-85
2022/12/13 00:38:32;;;;;;;;;25.25;22.25;;;;;3.23;58.63;19480.31;4993046;28;45437;-84
2022/12/13 00:40:57;;;;;;;;;22.25;20.00;;;;;3.24;58.52;19810.81;5008521;28;45514;-83
2022/12/13 00:43:28;;;;;;;;;32.00;23.00;;;;;1.90;58.03;19432.19;4994403;28;45390;-84
2022/12/13 00:45:54;;;;;;;;;22.75;21.00;;;;;1.58;58.04;19749.72;4994462;28;46322;-84
2022/12/13 00:48:19;;;;;;;;;25.50;21.00;;;;;2.08;58.18;19768.38;4991923;28;45373;-84
2022/12/13 00:50:44;;;;;;;;;28.50;21.50;;;;;2.57;58.30;19786.09;4991335;28;45834;-84
2022/12/13 00:53:13;;;;;;;;;18.50;18.50;;;;;2.68;58.71;20120.47;4993237;28;45485;-83
2022/12/13 00:55:40;;;;;;;;;31.50;26.00;;;;;3.15;57.98;20137.88;4988620;28;46432;-85
2022/12/13 00:58:05;;;;;;;;;23.50;21.50;;;;;1.93;58.46;20751.69;4991843;27;45704;-84
2022/12/13 01:00:30;;;;;;;;;31.00;23.50;;;;;2.29;57.98;20435.59;4992151;28;45745;-85
2022/12/13 01:02:56;;;;;;;;;30.25;24.25;;;;;2.24;58.46;20433.84;4986674;28;45317;-83
2022/12/13 01:05:21;;;;;;;;;26.25;24.25;;;;;1.74;58.37;21073.84;4994115;28;47222;-84
2022/12/13 01:07:47;;;;;;;;;26.25;23.75;;;;;2.81;58.02;20785.34;4992665;28;45451;-85
2022/12/13 01:10:12;;;;;;;;;23.50;23.50;;;;;2.63;58.37;21108.53;4994044;28;45676;-85
2022/12/13 01:12:38;;;;;;;;;22.00;21.25;;;;;3.06;58.29;21455.88;4993132;27;45230;-84
2022/12/13 01:15:04;;;;;;;;;19.00;18.25;;;;;2.01;57.68;21414.38;4992541;28;47505;-83
2022/12/13 01:17:30;;;;;;;;;20.25;20.00;;;;;2.48;58.26;21762.84;4994062;28;45607;-84
2022/12/13 01:19:55;;;;;;;;;18.50;17.25;;;;;2.39;57.86;22089.22;4984025;28;45613;-84
2022/12/13 01:22:21;;;;;;;;;23.50;19.50;;;;;2.35;57.87;22087.56;4987968;28;45441;-85
2022/12/13 01:24:46;;;;;;;;;20.50;20.50;;;;;1.40;57.85;22049.13;4991584;28;45668;-84
2022/12/13 01:27:12;;;;;;;;;21.75;18.50;;;;;1.62;57.91;22717.41;5095233;27;45445;-84
2022/12/13 01:29:37;;;;;;;;;18.25;18.25;;;;;1.57;57.94;22385.81;4985069;28;45422;-83
2022/12/13 01:32:03;;;;;;;;;18.25;17.75;;;;;1.44;57.63;23039.56;4994245;28;45548;-84
2022/12/13 01:34:29;;;;;;;;;19.50;19.25;;;;;2.37;57.82;22748.53;4993519;28;47627;-84
2022/12/13 01:36:55;;;;;;;;;20.00;20.00;;;;;1.78;57.35;23053.81;4989282;28;45358;-83
2022/12/13 01:39:24;;;;;;;;;17.25;16.75;;;;;1.72;57.39;23381.03;4987596;28;45430;-85
2022/12/13 01:41:58;;;;;;;;;23.75;20.75;;;;;2.88;57.63;23430.91;4993286;28;45704;-84
2022/12/13 01:44:51;;;;;;;;;19.50;17.50;;;;;2.91;57.64;23762.69;4998038;28;47583;-85
2022/12/13 01:47:22;;;;;;;;;19.00;18.00;;;;;2.03;57.13;23724.56;4996052;28;45509;-84
2022/12/13 01:49:48;;;;;;;;;19.00;18.00;;;;;1.80;57.86;24374.44;4992483;28;45437;-84
2022/12/13 01:52:15;;;;;;;;;23.50;17.75;;;;;2.70;57.58;23753.38;4994040;28;45488;-85
2022/12/13 01:54:45;;;;;;;;;19.00;17.25;;;;;2.93;57.45;24094.09;4993481;28;46414;-84
2022/12/13 01:57:14;;;;;;;;;18.50;16.75;;;;;2.07;57.62;24056.16;5004941;27;45490;-84
2022/12/13 01:59:41;;;;;;;;;17.25;16.25;;;;;2.93;57.48;24424.63;4985572;28;45443;-83
2022/12/13 02:02:10;;;;;;;;;18.25;17.00;;;;;2.61;57.23;24410.31;4993778;28;45476;-83
2022/12/13 02:05:02;;;;;;;;;19.50;16.25;;;;;2.92;57.17;24424.16;4993484;28;45791;-83
2022/12/13 02:07:32;;;;;;;;;17.25;16.25;;;;;2.95;57.12;24425.53;4992757;28;45379;-84
2022/12/13 02:13:19;;;;;;;;;22.75;17.50;;;;;2.38;56.59;25060.41;4993054;27;46387;-84
2022/12/13 02:15:52;;;;;;;;;19.25;18.75;;;;;2.05;57.16;25375.91;4990674;28;46462;-84
2022/12/13 02:18:39;;;;;;;;;18.25;14.25;;;;;1.58;56.90;25684.19;4992808;28;45419;-84
2022/12/13 02:21:49;;;;;;;;;12.50;12.00;;;;;1.24;56.92;25668.50;4990146;28;45465;-83
2022/12/13 02:24:46;;;;;;;;;19.00;17.25;;;;;2.92;57.00;25746.34;4999941;28;45459;-84
2022/12/13 02:27:33;;;;;;;;;21.50;17.75;;;;;1.37;56.89;26004.25;4984378;28;45500;-85
2022/12/13 02:30:19;;;;;;;;;21.25;17.00;;;;;2.92;56.40;26077.25;4998426;28;45566;-84
2022/12/13 02:33:03;;;;;;;;;17.50;15.75;;;;;2.92;56.50;26407.69;4995913;28;45451;-84
2022/12/13 02:36:00;;;;;;;;;19.50;15.75;;;;;1.42;56.30;26666.47;4993384;28;45603;-84
2022/12/13 02:38:34;;;;;;;;;17.25;13.50;;;;;2.19;56.28;26703.16;5020720;28;46384;-84
2022/12/13 02:41:41;;;;;;;;;13.50;12.75;;;;;2.92;55.90;27399.94;5029130;28;45429;-85
2022/12/13 02:44:38;;;;;;;;;17.50;14.25;;;;;2.60;56.18;27384.06;4973593;28;45479;-84
2022/12/13 02:47:22;;;;;;;;;22.75;19.25;;;;;1.84;56.27;27346.78;4968920;28;45440;-84
2022/12/13 02:49:55;;;;;;;;;16.75;12.75;;;;;2.61;56.35;27384.81;4973674;28;46176;-84
2022/12/13 02:52:41;;;;;;;;;17.50;17.50;;;;;1.91;56.29;27680.56;4984233;28;45522;-85
2022/12/13 02:55:11;;;;;;;;;18.75;16.75;;;;;2.03;56.35;27356.09;4971524;28;45542;-85
2022/12/13 02:57:43;;;;;;;;;13.75;13.00;;;;;2.92;56.25;27731.00;4974027;28;45374;-85
2022/12/13 03:00:39;;;;;;;;;19.75;18.50;;;;;2.92;56.32;27731.00;4973835;28;45516;-84
2022/12/13 03:03:29;;;;;;;;;16.75;14.75;;;;;2.90;56.27;28060.56;4974500;28;45549;-84
2022/12/13 03:06:28;;;;;;;;;22.00;17.00;;;;;2.89;56.05;28060.31;4960378;28;45549;-84
2022/12/13 03:09:08;;;;;;;;;20.75;17.50;;;;;2.87;56.22;28389.84;4976716;28;45502;-85
2022/12/13 03:14:45;;;;;;;;;17.50;15.25;;;;;2.70;56.19;28381.53;4984410;28;45406;-86
2022/12/13 03:17:17;;;;;;;;;15.75;13.00;;;;;2.35;56.26;28694.13;5020508;28;46096;-85
2022/12/13 03:19:43;;;;;;;;;13.75;12.50;;;;;2.55;56.25;28373.69;4995512;28;45405;-83
2022/12/13 03:22:08;;;;;;;;;18.00;16.00;;;;;2.52;56.38;28372.16;4993421;28;45685;-84
2022/12/13 03:24:34;;;;;;;;;15.75;12.25;;;;;2.83;56.55;28057.22;5006386;28;45428;-85
2022/12/13 03:26:59;;;;;;;;;24.50;20.75;;;;;2.82;56.16;28387.25;4993927;28;45370;-84
2022/12/13 03:29:25;;;;;;;;;21.00;17.50;;;;;2.81;56.36;28717.56;5006626;28;45403;-84
2022/12/13 03:31:51;;;;;;;;;16.25;13.50;;;;;2.18;56.27;28685.47;4994123;28;46459;-84
2022/12/13 03:34:17;;;;;;;;;23.00;18.50;;;;;2.79;55.93;29047.63;4993742;28;45443;-85
2022/12/13 03:36:42;;;;;;;;;28.25;21.50;;;;;2.79;56.46;29047.63;4993261;28;45685;-84
2022/12/13 03:39:08;;;;;;;;;22.00;16.25;;;;;2.69;56.13;29042.28;5027777;27;45690;-84
2022/12/13 03:41:34;;;;;;;;;21.50;17.00;;;;;2.64;55.91;29370.69;4994784;28;45784;-85
2022/12/13 03:44:04;;;;;;;;;17.50;14.75;;;;;2.68;56.09;29372.59;4995387;28;45383;-84
2022/12/13 03:46:29;;;;;;;;;21.25;16.50;;;;;2.75;56.22;29045.75;4990823;28;45402;-83
2022/12/13 03:48:55;;;;;;;;;19.50;18.00;;;;;2.74;56.25;29376.09;4995599;28;45387;-84
2022/12/13 03:51:20;;;;;;;;;19.50;13.50;;;;;2.76;56.45;29376.88;4992745;28;46185;-85
2022/12/13 03:53:46;;;;;;;;;20.25;16.25;;;;;2.74;56.34;29706.69;5008487;27;46301;-84
2022/12/13 03:56:11;;;;;;;;;18.75;18.00;;;;;2.73;56.48;29375.28;4994612;28;45444;-84
2022/12/13 03:58:37;;;;;;;;;26.00;19.50;;;;;2.25;56.24;29680.91;4988714;28;45643;-84
2022/12/13 04:01:04;;;;;;;;;26.25;18.00;;;;;2.74;56.41;29375.81;5003041;28;46379;-85
2022/12/13 04:03:30;;;;;;;;;21.75;17.75;;;;;2.71;56.56;30035.94;4995821;28;45384;-84
2022/12/13 04:05:55;;;;;;;;;26.75;21.50;;;;;2.32;55.82;30015.13;4984033;28;45446;-84
2022/12/13 04:08:21;;;;;;;;;11.75;9.25;;;;;2.30;56.46;30014.28;4990162;28;45330;-85
2022/12/13 04:10:46;;;;;;;;;28.75;22.00;;;;;2.45;56.38;30021.97;4994577;28;46516;-84
2022/12/13 04:15:55;;;;;;;;;23.50;17.25;;;;;1.86;55.90;30320.91;4986181;28;45487;-84
2022/12/13 04:18:20;;;;;;;;;15.75;15.75;;;;;2.17;56.44;30337.50;4989854;28;45531;-85
2022/12/13 04:20:46;;;;;;;;;21.00;19.00;;;;;2.67;56.45;30364.94;4993931;28;45364;-84
2022/12/13 04:23:12;;;;;;;;;19.50;19.50;;;;;2.41;56.02;31012.41;4994094;28;45420;-84
2022/12/13 04:25:38;;;;;;;;;23.25;19.50;;;;;2.47;56.11;31015.78;4992782;28;45532;-84
2022/12/13 04:28:04;;;;;;;;;26.00;22.50;;;;;2.63;55.87;31024.28;5010073;28;45460;-84
2022/12/13 04:30:29;;;;;;;;;22.00;18.50;;;;;2.57;56.15;30690.25;4992468;28;46067;-85
2022/12/13 04:32:55;;;;;;;;;21.00;21.00;;;;;2.37;56.05;30679.34;4984588;28;45473;-84
2022/12/13 04:35:21;;;;;;;;;25.25;22.00;;;;;2.10;55.98;30334.19;4993743;28;45381;-84
2022/12/13 04:37:46;;;;;;;;;17.00;16.75;;;;;2.58;56.32;30690.53;4992727;28;45617;-84
2022/12/13 04:40:12;;;;;;;;;25.00;21.00;;;;;2.66;56.09;30695.28;4990701;28;45462;-85
2022/12/13 04:42:37;;;;;;;;;22.75;18.00;;;;;1.56;56.49;30635.19;4995078;28;45363;-84
2022/12/13 04:45:03;;;;;;;;;29.50;22.25;;;;;2.08;56.03;30994.03;4993374;28;45401;-84
2022/12/13 04:47:28;;;;;;;;;24.00;21.25;;;;;2.59;56.30;31022.00;4982327;28;45440;-84
2022/12/13 04:49:54;;;;;;;;;25.50;20.50;;;;;2.14;56.17;30997.16;4990057;28;47011;-84
2022/12/13 04:52:20;;;;;;;;;24.00;18.75;;;;;2.54;56.33;31681.31;4994876;28;45401;-84
2022/12/13 04:54:45;;;;;;;;;26.00;24.00;;;;;2.11;56.31;31326.69;4993752;28;45553;-84
2022/12/13 04:57:11;;;;;;;;;22.75;21.00;;;;;2.15;56.38;31328.69;4994053;28;45651;-84
2022/12/13 04:59:37;;;;;;;;;24.00;17.75;;;;;2.50;56.08;31679.28;4993860;28;45885;-85
2022/12/13 05:02:04;;;;;;;;;21.75;21.50;;;;;1.19;55.99;31935.56;4994598;28;45442;-84
2022/12/13 05:04:29;;;;;;;;;16.75;14.00;;;;;1.92;56.50;31646.47;4983390;28;45360;-85
2022/12/13 05:06:56;;;;;;;;;21.75;17.75;;;;;1.63;56.53;31630.34;4978812;28;45438;-84
2022/12/13 05:09:22;;;;;;;;;24.75;24.00;;;;;1.39;56.63;31286.53;4993456;28;45503;-84
2022/12/13 05:11:47;;;;;;;;;28.00;23.50;;;;;2.25;56.85;31334.13;4994463;27;45481;-84
2022/12/13 05:14:12;;;;;;;;;23.50;19.25;;;;;2.46;56.28;31346.09;4994451;28;45837;-84
2022/12/13 05:16:38;;;;;;;;;27.50;24.25;;;;;2.38;56.43;31341.25;4990519;27;45396;-84
2022/12/13 05:19:03;;;;;;;;;31.50;23.00;;;;;2.55;56.66;31020.03;4992358;28;47363;-84
2022/12/13 05:21:28;;;;;;;;;22.00;18.75;;;;;2.29;56.26;31005.91;4993043;28;45359;-84
2022/12/13 05:23:54;;;;;;;;;21.50;19.50;;;;;1.97;56.21;30988.13;4986257;28;45399;-84
2022/12/13 05:26:19;;;;;;;;;25.75;24.50;;;;;1.78;56.33;30977.38;4991887;28;45566;-84
2022/12/13 05:28:45;;;;;;;;;21.75;19.75;;;;;2.42;56.61;31012.97;4994942;28;45289;-84
2022/12/13 05:31:11;;;;;;;;;26.50;25.00;;;;;2.55;56.21;31350.94;4994256;28;45339;-84
2022/12/13 05:33:37;;;;;;;;;25.50;21.50;;;;;2.55;56.48;31350.94;4983127;28;45509;-84
2022/12/13 05:36:04;;;;;;;;;22.75;20.00;;;;;2.47;56.40;31015.78;4993829;28;45420;-84
2022/12/13 05:38:30;;;;;;;;;24.25;24.00;;;;;2.53;56.11;31350.09;4991994;28;46466;-84
2022/12/13 05:40:56;;;;;;;;;26.00;21.75;;;;;2.53;56.61;31349.81;4993534;28;45509;-84
2022/12/13 05:43:22;;;;;;;;;28.50;22.75;;;;;2.53;56.60;31349.81;4993911;28;45397;-84
2022/12/13 05:45:48;;;;;;;;;25.75;21.25;;;;;2.52;56.60;31349.22;4994172;28;45444;-84
2022/12/13 05:48:13;;;;;;;;;25.00;22.50;;;;;1.82;56.56;31641.00;4984716;28;45402;-84
2022/12/13 05:50:39;;;;;;;;;31.50;22.75;;;;;2.51;56.75;31679.88;4993328;28;45319;-84
2022/12/13 05:53:05;;;;;;;;;24.25;22.00;;;;;1.58;56.67;31297.06;4984348;28;45528;-84
2022/12/13 05:55:36;;;;;;;;;23.00;22.25;;;;;0.91;56.42;31589.53;4989865;28;45689;-84
2022/12/13 05:58:01;;;;;;;;;30.00;24.50;;;;;1.45;56.73;31620.28;4986482;28;45587;-84
2022/12/13 06:00:27;;;;;;;;;29.00;26.50;;;;;1.30;56.77;31281.13;4980327;28;45410;-84
2022/12/13 06:03:08;;;;;;;;;23.50;20.75;;;;;0.90;56.53;31919.03;4984001;28;46181;-84
2022/12/13 06:05:43;;;;;;;;;26.50;23.50;;;;;1.71;56.66;31965.19;4999507;28;46236;-84
2022/12/13 06:08:09;;;;;;;;;25.00;21.00;;;;;0.79;56.71;31583.19;4981794;28;46315;-85
2022/12/13 06:10:34;;;;;;;;;23.25;21.50;;;;;1.73;56.80;31635.53;5020481;28;45884;-86
2022/12/13 06:13:27;;;;;;;;;26.00;23.25;;;;;2.45;56.63;31676.13;4991193;27;45399;-85
2022/12/13 06:15:53;;;;;;;;;33.50;31.50;;;;;1.05;56.46;31927.72;4988635;28;45623;-84
2022/12/13 06:18:19;;;;;;;;;25.25;23.00;;;;;0.68;56.77;31576.59;4990389;27;45546;-84
2022/12/13 06:20:46;;;;;;;;;29.25;22.75;;;;;2.11;56.52;31657.13;4977922;28;45653;-86
2022/12/13 06:23:12;;;;;;;;;45.25;36.75;;;;;1.88;56.55;31313.88;4984072;28;45295;-86
2022/12/13 06:25:37;;;;;;;;;38.25;35.00;;;;;1.72;56.96;31634.97;4986671;28;45467;-86
2022/12/13 06:28:03;;;;;;;;;51.75;42.50;;;;;1.46;56.58;31620.88;4989165;28;45435;-85
2022/12/13 06:30:51;;;;;;;;;56.75;44.00;;;;;0.75;56.88;31580.91;4984001;28;45555;-86
2022/12/13 06:33:17;;;;;;;;;46.75;40.25;;;;;2.00;56.44;31981.47;4986398;28;45534;-86
2022/12/13 06:35:42;;;;;;;;;37.75;35.25;;;;;1.02;56.07;30935.94;4990747;28;45460;-86
2022/12/13 06:38:07;;;;;;;;;29.00;27.00;;;;;2.51;56.52;31679.59;4986525;28;46317;-85
2022/12/13 06:43:54;;;;;;;;;39.75;33.50;;;;;0.57;56.33;31900.75;4986166;28;45575;-86
2022/12/13 06:46:20;;;;;;;;;44.00;36.75;;;;;2.50;56.63;31679.28;4988918;28;45272;-87
2022/12/13 06:48:45;;;;;;;;;42.25;36.50;;;;;2.50;56.61;31017.47;4989243;27;47790;-86
2022/12/13 06:53:39;;;;;;;;;31.50;31.00;;;;;1.95;56.35;31648.19;5068479;27;45533;-85
2022/12/13 06:56:09;;;;;;;;;30.50;27.25;;;;;0.51;56.71;31896.97;5068556;27;45794;-87
2022/12/13 07:02:34;;;;;;;;;26.50;26.25;;;;;0.45;56.49;31893.50;5083077;27;45480;-87
2022/12/13 07:08:26;;;;;;;;;29.50;27.00;;;;;0.71;56.07;31578.31;4949020;28;46294;-87
2022/12/13 07:10:55;;;;;;;;;24.75;23.25;;;;;1.26;56.33;31279.41;4934974;28;46997;-87
2022/12/13 07:17:30;;;;;;;;;;;;;;;;;;;;;
2022/12/13 07:20:08;;;;;;;;;32.00;24.00;;;;;1.38;56.47;31285.97;4870061;29;62214;-87
2022/12/13 07:22:35;;;;;;;;;28.00;24.25;;;;;0.62;56.28;30913.66;4870891;29;47534;-86
2022/12/13 07:25:07;;;;;;;;;29.00;26.00;;;;;2.09;56.52;31325.28;4874052;29;46572;-86
2022/12/13 07:29:58;;;;;;;;;34.75;26.50;;;;;0.82;56.13;30924.66;5023583;22;58200;-88
2022/12/13 07:32:31;;;;;;;;;27.50;22.00;;;;;0.95;56.50;30931.69;5008276;28;46952;-87
2022/12/13 07:35:02;;;;;;;;;26.75;21.50;;;;;1.12;56.21;31601.31;5024116;28;45604;-88
2022/12/13 07:37:27;;;;;;;;;33.00;26.25;;;;;2.60;56.46;31684.47;5030462;28;46182;-87
2022/12/13 07:44:01;;;;;;;;;35.00;27.25;;;;;2.59;56.26;31683.91;5228930;22;45887;-88
2022/12/13 07:49:39;;;;;;;;;25.00;21.50;;;;;2.34;56.35;31339.25;5284030;22;45534;-89
2022/12/13 07:52:10;;;;;;;;;26.25;23.25;;;;;0.62;56.20;31243.53;5002165;28;45550;-89
2022/12/13 07:57:34;;;;;;;;;33.00;26.75;;;;;-0.83;56.35;31163.09;5802561;22;45458;-82
2022/12/13 08:03:04;;;;;;;;;33.00;29.75;;;;;-0.25;56.14;31195.47;4986406;28;45495;-81
2022/12/13 08:06:33;;;;;;;;;32.00;25.25;;;;;2.61;56.46;31354.38;5009462;23;46461;-83
2022/12/13 08:18:59;;;;;;;;;42.50;29.25;;;;;2.68;56.47;31027.38;5467461;22;47200;-88
2022/12/13 08:24:46;;;;;;;;;32.00;24.75;;;;;2.63;56.24;30693.34;5052993;22;45411;-96
2022/12/13 08:27:11;;;;;;;;;34.50;31.00;;;;;1.97;56.09;30657.53;5019673;28;45454;-95
2022/12/13 08:29:36;;;;;;;;;37.00;31.00;;;;;2.78;56.15;31032.75;5026733;28;48480;-96
2022/12/13 08:32:04;;;;;;;;;38.75;33.25;;;;;2.52;55.87;30687.47;5044553;28;45452;-95
2022/12/13 08:34:30;;;;;;;;;37.75;33.00;;;;;2.47;56.41;30354.13;5024559;28;45783;-94
2022/12/13 08:36:55;;;;;;;;;36.75;34.25;;;;;1.88;55.52;30652.78;5024110;28;45264;-95
2022/12/13 08:39:21;;;;;;;;;36.00;32.25;;;;;2.62;56.27;30693.06;5015193;28;47983;-95
2022/12/13 08:41:46;;;;;;;;;37.50;29.75;;;;;2.71;55.94;30697.81;5013870;28;45451;-94
2022/12/13 08:44:12;;;;;;;;;33.50;29.25;;;;;2.70;56.22;30366.31;5020816;28;45313;-93
2022/12/13 08:46:37;;;;;;;;;36.25;30.50;;;;;2.48;55.96;29693.13;5018573;28;45606;-93
2022/12/13 08:49:02;;;;;;;;;36.75;30.25;;;;;1.56;55.99;29644.03;5008342;28;47453;-95
2022/12/13 08:51:28;;;;;;;;;39.50;34.50;;;;;2.18;56.10;30007.44;5038709;28;45398;-94
2022/12/13 08:53:53;;;;;;;;;40.00;29.50;;;;;2.62;55.88;29369.63;5020163;28;45681;-94
2022/12/13 08:56:19;;;;;;;;;34.25;29.25;;;;;2.56;55.71;29366.41;5017935;28;45814;-95
2022/12/13 08:58:48;;;;;;;;;32.00;31.00;;;;;3.14;55.79;29396.78;5021146;28;47679;-94
2022/12/13 09:01:14;;;;;;;;;35.25;28.75;;;;;2.99;55.30;29388.72;5017051;28;46052;-94
2022/12/13 09:03:40;;;;;;;;;29.50;27.00;;;;;2.95;55.30;29718.09;5023734;28;45407;-93
2022/12/13 09:06:15;;;;;;;;;31.25;27.25;;;;;3.23;55.22;29732.75;5021101;28;45552;-94
2022/12/13 09:08:42;;;;;;;;;37.25;28.75;;;;;3.27;54.64;29734.94;5022890;28;48484;-93
2022/12/13 09:11:09;;;;;;;;;36.50;30.75;;;;;3.21;54.92;30062.56;5019946;28;46385;-93
2022/12/13 09:13:36;;;;;;;;;35.25;28.25;;;;;3.26;54.72;30065.31;5015181;28;45469;-95
2022/12/13 09:16:13;;;;;;;;;34.75;32.00;;;;;3.01;54.97;30383.22;5021540;28;45477;-96
2022/12/13 09:18:38;;;;;;;;;26.50;23.00;;;;;2.84;54.67;30374.06;5031996;28;48122;-92
2022/12/13 09:21:08;;;;;;;;;27.50;25.00;;;;;2.99;54.54;30381.84;5019049;28;46723;-91
2022/12/13 09:23:34;;;;;;;;;35.25;32.00;;;;;3.10;54.29;30387.94;5021680;28;45376;-91
2022/12/13 09:26:00;;;;;;;;;32.75;31.00;;;;;3.38;54.44;30734.75;5016728;28;45371;-90
2022/12/13 09:28:26;;;;;;;;;43.50;32.50;;;;;2.84;54.35;31035.84;5034680;28;47053;-92
2022/12/13 09:30:52;;;;;;;;;29.75;27.00;;;;;3.25;53.88;31058.47;5018603;28;45480;-92
2022/12/13 09:33:17;;;;;;;;;32.75;29.00;;;;;2.58;54.25;31021.72;5042830;28;45469;-93
2022/12/13 09:35:43;;;;;;;;;26.50;26.50;;;;;2.31;54.08;31007.03;5022070;28;45376;-94
2022/12/13 09:38:09;;;;;;;;;36.25;33.50;;;;;2.64;54.10;31025.09;5021116;28;46766;-95
2022/12/13 09:40:38;;;;;;;;;41.00;32.00;;;;;2.38;53.82;31341.25;5020545;28;45862;-95
2022/12/13 09:43:04;;;;;;;;;38.00;33.50;;;;;2.37;53.89;31010.16;5021090;28;45396;-95
2022/12/13 09:45:32;;;;;;;;;52.50;40.75;;;;;2.41;53.32;31674.13;5021104;28;45607;-96
2022/12/13 09:47:58;;;;;;;;;55.75;41.50;;;;;2.94;53.31;31372.63;5022658;28;47358;-95
2022/12/13 09:50:24;;;;;;;;;35.50;32.00;;;;;3.63;53.58;31079.69;5040312;28;45478;-95
2022/12/13 09:52:50;;;;;;;;;49.50;39.75;;;;;1.93;53.71;30985.56;5032192;28;45199;-96
2022/12/13 09:57:52;;;;;;;;;44.75;38.75;;;;;1.98;53.22;30658.09;6205825;22;46303;-96
2022/12/13 10:03:19;;;;;;;;;38.00;31.25;;;;;2.37;53.04;30348.59;5849844;22;45471;-96
2022/12/13 10:11:17;;;;;;;;;34.00;31.75;;;;;2.38;53.12;30018.41;5278643;22;45435;-93
2022/12/13 10:23:15;;;;;;;;;35.75;33.75;;;;;3.83;52.89;31422.03;5235956;22;46853;-91
2022/12/13 10:25:46;;;;;;;;;33.00;29.75;;;;;4.02;52.71;31432.91;5044300;28;45795;-96
2022/12/13 10:28:12;;;;;;;;;30.25;27.75;;;;;3.43;52.72;31731.47;5043458;28;45522;-95
2022/12/13 10:30:42;;;;;;;;;30.75;30.50;;;;;4.06;52.81;31766.97;5038684;28;47100;-95
2022/12/13 10:33:30;;;;;;;;;33.50;28.00;;;;;3.74;52.37;31749.06;5030437;28;45402;-96
2022/12/13 10:36:12;;;;;;;;;30.25;27.75;;;;;2.97;52.47;31705.50;5041057;28;45430;-96
2022/12/13 10:38:40;;;;;;;;;39.00;33.00;;;;;3.50;52.06;31735.22;5053584;28;45450;-96
2022/12/13 10:41:38;;;;;;;;;30.50;26.75;;;;;2.47;51.97;31677.56;5033578;28;47699;-96
2022/12/13 10:44:21;;;;;;;;;25.50;23.75;;;;;3.22;52.11;31719.63;4984970;28;45286;-96
2022/12/13 10:46:58;;;;;;;;;32.75;27.25;;;;;4.21;51.86;32107.50;4977282;28;45240;-96
2022/12/13 10:49:30;;;;;;;;;32.50;29.75;;;;;2.45;51.70;32669.25;4988719;28;45942;-96
2022/12/13 10:51:58;;;;;;;;;32.75;29.00;;;;;3.71;51.58;32742.22;4977855;28;47242;-96
2022/12/13 10:54:30;;;;;;;;;31.00;26.50;;;;;4.18;51.78;32437.63;4974557;28;45507;-96
2022/12/13 10:56:59;;;;;;;;;25.00;24.25;;;;;3.52;51.00;33062.53;4982574;28;45817;-95
2022/12/13 10:59:35;;;;;;;;;36.25;28.00;;;;;4.43;50.59;32784.09;4997381;28;45335;-96
2022/12/13 11:02:30;;;;;;;;;31.50;27.50;;;;;4.47;51.41;32785.88;4994750;28;48412;-93
2022/12/13 11:04:57;;;;;;;;;34.75;27.25;;;;;4.05;50.97;33757.50;4980928;28;46128;-96
2022/12/13 11:07:31;;;;;;;;;38.25;29.50;;;;;4.46;50.93;34446.00;4996198;28;45406;-95
2022/12/13 11:10:14;;;;;;;;;34.75;27.75;;;;;4.31;50.57;34105.19;4998873;28;46427;-96
2022/12/13 11:12:41;;;;;;;;;34.00;27.50;;;;;3.71;50.78;34400.63;5008282;28;48747;-96
2022/12/13 11:15:25;;;;;;;;;31.00;29.75;;;;;4.53;50.81;34118.44;4988155;28;46283;-95
2022/12/13 11:17:54;;;;;;;;;33.75;28.00;;;;;4.07;50.66;34754.41;4979911;28;45451;-95
2022/12/13 11:20:28;;;;;;;;;31.25;30.50;;;;;4.31;50.14;35101.31;5019155;28;45585;-96
2022/12/13 11:23:01;;;;;;;;;29.25;27.00;;;;;4.36;50.22;35769.28;5051055;28;47255;-95
2022/12/13 11:25:38;;;;;;;;;30.25;26.25;;;;;4.59;50.51;35118.72;5047462;28;45679;-96
2022/12/13 11:28:44;;;;;;;;;28.25;26.75;;;;;4.68;50.09;35456.50;5047811;28;45351;-95
2022/12/13 11:31:46;;;;;;;;;31.50;25.00;;;;;4.73;50.12;35460.03;5043080;28;45494;-96
2022/12/13 11:34:33;;;;;;;;;30.25;26.25;;;;;4.89;49.89;34472.44;5050620;28;48330;-96
2022/12/13 11:37:34;;;;;;;;;31.00;30.75;;;;;5.00;49.98;34146.50;5062068;28;45409;-96
2022/12/13 11:40:24;;;;;;;;;32.75;28.75;;;;;5.14;49.89;33489.78;5019226;28;45390;-96
2022/12/13 11:43:19;;;;;;;;;32.00;29.25;;;;;5.21;49.44;33826.88;5033266;28;45291;-96
2022/12/13 11:45:53;;;;;;;;;35.00;30.00;;;;;5.33;50.09;32503.31;4983691;28;48412;-96
2022/12/13 11:48:31;;;;;;;;;31.50;27.25;;;;;5.41;49.38;32508.31;4965134;28;45674;-96
2022/12/13 11:50:59;;;;;;;;;33.50;27.25;;;;;5.41;49.30;32840.91;5000444;28;45392;-96
2022/12/13 11:53:58;;;;;;;;;30.75;26.75;;;;;5.66;49.58;31524.78;4994029;28;46022;-96
2022/12/13 11:56:35;;;;;;;;;31.25;28.50;;;;;5.69;48.49;32524.53;4986419;28;47627;-96
2022/12/13 11:59:22;;;;;;;;;33.75;31.00;;;;;5.92;48.75;31872.16;5002895;28;45414;-96
2022/12/13 12:01:56;;;;;;;;;31.75;28.25;;;;;5.71;48.57;32525.41;4982183;28;45767;-96
2022/12/13 12:04:45;;;;;;;;;31.50;28.50;;;;;6.02;48.06;33542.22;4985897;28;45538;-96
2022/12/13 12:07:16;;;;;;;;;31.75;30.25;;;;;5.80;48.25;33862.03;4979765;28;47448;-96
2022/12/13 12:09:49;;;;;;;;;33.00;30.00;;;;;6.05;48.21;33876.75;4982136;28;45886;-96
2022/12/13 12:12:34;;;;;;;;;31.75;28.25;;;;;5.95;47.55;36868.81;5002755;28;45367;-96
2022/12/13 12:15:33;;;;;;;;;29.50;28.25;;;;;5.84;47.52;36861.53;4995688;28;45453;-95
2022/12/13 12:17:59;;;;;;;;;32.75;29.75;;;;;5.56;47.64;36843.66;4981004;28;47987;-96
2022/12/13 12:20:57;;;;;;;;;30.00;27.25;;;;;5.85;47.58;37929.50;4997640;28;45822;-96
2022/12/13 12:23:28;;;;;;;;;34.25;31.00;;;;;6.03;47.37;38207.06;5042468;28;45543;-96
2022/12/13 12:26:03;;;;;;;;;37.25;26.75;;;;;6.01;47.85;36875.06;5042278;28;45328;-96
2022/12/13 12:28:51;;;;;;;;;31.50;27.25;;;;;6.33;47.22;35893.47;5041637;28;47734;-96
2022/12/13 12:31:34;;;;;;;;;30.50;28.75;;;;;6.08;47.61;35210.97;5061901;28;45493;-90
2022/12/13 12:34:51;;;;;;;;;27.00;24.75;;;;;6.55;46.98;36574.03;5036109;28;47088;-95
2022/12/13 12:37:28;;;;;;;;;34.75;30.00;;;;;6.53;46.41;38240.97;4960696;28;45463;-94
2022/12/13 12:40:04;;;;;;;;;35.00;30.00;;;;;6.62;46.45;37579.13;4982072;28;47588;-95
2022/12/13 12:42:49;;;;;;;;;33.00;27.00;;;;;6.63;46.88;37274.81;4999529;28;45357;-94
2022/12/13 12:45:22;;;;;;;;;26.50;25.25;;;;;6.69;46.72;37917.53;4973762;28;45417;-95
2022/12/13 12:48:11;;;;;;;;;31.75;30.50;;;;;6.66;46.34;38418.66;4977042;28;45644;-93
2022/12/13 12:50:50;;;;;;;;;35.50;26.50;;;;;6.41;46.65;38310.94;4977086;28;47649;-93
2022/12/13 12:53:29;;;;;;;;;29.00;27.50;;;;;6.84;45.90;39223.66;4982291;28;46004;-94
2022/12/13 12:56:06;;;;;;;;;24.75;22.00;;;;;6.94;46.06;39507.22;4994983;28;45481;-93
2022/12/13 12:58:46;;;;;;;;;32.25;26.00;;;;;6.99;45.67;38289.72;4983936;28;45363;-94
2022/12/13 13:01:30;;;;;;;;;22.25;22.25;;;;;6.98;45.56;37775.53;4991597;28;48522;-93
2022/12/13 13:04:00;;;;;;;;;25.50;23.75;;;;;7.30;45.18;39628.56;4977499;28;45565;-93